createdAt,value
2018-02-11T00:00:39.606Z,2.27
2018-02-11T00:03:07.898Z,2.27
2018-02-11T00:05:36.246Z,2.26
2018-02-11T00:08:04.552Z,2.30
2018-02-11T00:10:32.892Z,2.31
2018-02-11T00:13:01.200Z,2.31
2018-02-11T00:15:29.580Z,2.31
2018-02-11T00:17:57.900Z,2.30
2018-02-11T00:20:26.242Z,2.30
2018-02-11T00:22:54.569Z,2.30
2018-02-11T00:25:22.891Z,2.28
2018-02-11T00:27:51.232Z,2.27
2018-02-11T00:30:20.298Z,2.26
2018-02-11T00:32:49.056Z,2.33
2018-02-11T00:35:17.355Z,2.31
2018-02-11T00:37:51.147Z,2.33
2018-02-11T00:40:19.464Z,2.32
2018-02-11T00:42:48.607Z,2.32
2018-02-11T00:45:16.945Z,2.35
2018-02-11T00:47:46.052Z,2.38
2018-02-11T00:50:15.176Z,2.43
2018-02-11T00:52:43.516Z,2.44
2018-02-11T00:55:12.589Z,2.42
2018-02-11T00:57:40.921Z,2.44
2018-02-11T01:00:09.272Z,2.43
2018-02-11T01:02:38.361Z,2.46
2018-02-11T01:05:07.514Z,2.48
2018-02-11T01:07:35.867Z,2.56
2018-02-11T01:10:04.206Z,2.55
2018-02-11T01:12:33.328Z,2.57
2018-02-11T01:15:01.649Z,2.58
2018-02-11T01:17:29.988Z,2.56
2018-02-11T01:19:58.346Z,2.56
2018-02-11T01:22:27.462Z,2.58
2018-02-11T01:24:55.814Z,2.61
2018-02-11T01:27:24.874Z,2.60
2018-02-11T01:29:53.185Z,2.53
2018-02-11T01:32:22.291Z,2.54
2018-02-11T01:34:50.607Z,2.55
2018-02-11T01:37:18.931Z,2.55
2018-02-11T01:39:48.328Z,2.55
2018-02-11T01:42:17.427Z,2.56
2018-02-11T01:44:45.727Z,2.58
2018-02-11T01:47:14.079Z,2.60
2018-02-11T01:49:43.177Z,2.63
2018-02-11T01:52:12.292Z,2.66
2018-02-11T01:54:40.626Z,2.66
2018-02-11T01:57:08.962Z,2.65
2018-02-11T01:59:37.301Z,2.66
2018-02-11T02:02:05.604Z,2.66
2018-02-11T02:04:33.959Z,2.68
2018-02-11T02:07:03.051Z,2.70
2018-02-11T02:09:32.164Z,2.70
2018-02-11T02:12:00.480Z,2.67
2018-02-11T02:14:28.856Z,2.70
2018-02-11T02:16:57.173Z,2.72
2018-02-11T02:19:25.490Z,2.67
2018-02-11T02:21:53.864Z,2.72
2018-02-11T02:24:22.197Z,2.80
2018-02-11T02:26:50.487Z,2.81
2018-02-11T02:29:19.788Z,2.79
2018-02-11T02:31:48.865Z,2.80
2018-02-11T02:34:17.185Z,2.82
2018-02-11T02:36:45.573Z,2.84
2018-02-11T02:39:13.922Z,2.83
2018-02-11T02:41:43.017Z,2.85
2018-02-11T02:44:12.148Z,2.86
2018-02-11T02:46:40.467Z,2.86
2018-02-11T02:49:08.777Z,2.80
2018-02-11T02:51:37.158Z,2.79
2018-02-11T02:54:05.472Z,2.80
2018-02-11T02:56:33.817Z,2.85
2018-02-11T02:59:02.131Z,2.83
2018-02-11T03:01:30.483Z,2.86
2018-02-11T03:03:58.809Z,2.92
2018-02-11T03:06:27.181Z,2.95
2018-02-11T03:08:55.500Z,2.90
2018-02-11T03:11:23.797Z,2.86
2018-02-11T03:13:52.145Z,2.87
2018-02-11T03:16:20.462Z,2.87
2018-02-11T03:18:48.821Z,2.89
2018-02-11T03:21:17.143Z,2.87
2018-02-11T03:23:45.474Z,2.86
2018-02-11T03:26:13.823Z,2.88
2018-02-11T03:28:42.919Z,2.87
2018-02-11T03:31:12.047Z,2.84
2018-02-11T03:33:40.381Z,2.83
2018-02-11T03:36:09.450Z,2.84
2018-02-11T03:38:38.201Z,2.84
2018-02-11T03:41:06.516Z,2.85
2018-02-11T03:43:34.860Z,2.83
2018-02-11T03:46:03.204Z,2.84
2018-02-11T03:48:32.322Z,2.83
2018-02-11T03:51:00.636Z,2.83
2018-02-11T03:53:28.946Z,2.92
2018-02-11T03:55:58.370Z,2.90
2018-02-11T03:58:26.718Z,2.94
2018-02-11T04:00:55.802Z,2.95
2018-02-11T04:03:24.152Z,2.92
2018-02-11T04:05:52.489Z,2.95
2018-02-11T04:08:21.584Z,2.95
2018-02-11T04:10:50.703Z,2.97
2018-02-11T04:13:19.037Z,2.92
2018-02-11T04:15:48.139Z,2.94
2018-02-11T04:18:17.250Z,2.90
2018-02-11T04:20:45.579Z,2.88
2018-02-11T04:23:13.922Z,2.90
2018-02-11T04:25:42.632Z,2.89
2018-02-11T04:28:10.960Z,2.86
2018-02-11T04:30:40.064Z,2.76
2018-02-11T04:33:08.364Z,2.77
2018-02-11T04:35:36.716Z,2.78
2018-02-11T04:38:05.784Z,2.77
2018-02-11T04:40:34.120Z,2.83
2018-02-11T04:43:02.456Z,2.88
2018-02-11T04:45:31.584Z,2.92
2018-02-11T04:47:59.930Z,2.88
2018-02-11T04:50:28.993Z,2.92
2018-02-11T04:52:57.348Z,2.96
2018-02-11T04:55:25.655Z,2.99
2018-02-11T04:57:53.962Z,3.05
2018-02-11T05:00:22.302Z,3.04
2018-02-11T05:02:50.650Z,3.06
2018-02-11T05:05:18.980Z,3.10
2018-02-11T05:07:48.083Z,3.11
2018-02-11T05:10:16.427Z,3.09
2018-02-11T05:12:44.719Z,3.04
2018-02-11T05:15:13.082Z,2.99
2018-02-11T05:17:41.428Z,2.98
2018-02-11T05:20:09.737Z,2.96
2018-02-11T05:22:38.120Z,2.92
2018-02-11T05:25:06.441Z,2.90
2018-02-11T05:27:34.752Z,2.88
2018-02-11T05:30:03.086Z,2.92
2018-02-11T05:32:31.405Z,2.94
2018-02-11T05:34:59.741Z,2.89
2018-02-11T05:37:28.091Z,2.85
2018-02-11T05:39:56.411Z,2.83
2018-02-11T05:42:24.765Z,2.84
2018-02-11T05:44:53.853Z,2.87
2018-02-11T05:47:22.985Z,2.89
2018-02-11T05:49:51.293Z,2.91
2018-02-11T05:52:20.046Z,2.89
2018-02-11T05:54:48.397Z,2.88
2018-02-11T05:57:17.489Z,2.94
2018-02-11T05:59:46.605Z,2.95
2018-02-11T06:02:14.929Z,2.93
2018-02-11T06:04:43.286Z,2.91
2018-02-11T06:07:11.605Z,2.92
2018-02-11T06:09:40.720Z,2.91
2018-02-11T06:12:09.047Z,2.91
2018-02-11T06:14:37.402Z,2.90
2018-02-11T06:17:05.724Z,2.93
2018-02-11T06:19:34.037Z,2.89
2018-02-11T06:22:02.417Z,2.92
2018-02-11T06:24:30.731Z,2.95
2018-02-11T06:26:59.085Z,2.89
2018-02-11T06:29:27.395Z,2.89
2018-02-11T06:31:55.711Z,2.95
2018-02-11T06:34:24.808Z,3.02
2018-02-11T06:36:53.921Z,3.03
2018-02-11T06:39:22.240Z,3.06
2018-02-11T06:41:50.561Z,3.08
2018-02-11T06:44:18.904Z,3.04
2018-02-11T06:46:47.227Z,3.06
2018-02-11T06:49:15.592Z,3.07
2018-02-11T06:51:43.909Z,3.09
2018-02-11T06:54:12.293Z,3.08
2018-02-11T06:56:40.645Z,3.14
2018-02-11T06:59:08.960Z,3.21
2018-02-11T07:01:37.275Z,3.20
2018-02-11T07:04:06.439Z,3.24
2018-02-11T07:06:34.747Z,3.29
2018-02-11T07:09:03.158Z,3.40
2018-02-11T07:11:31.445Z,3.47
2018-02-11T07:13:59.761Z,3.48
2018-02-11T07:16:28.879Z,3.51
2018-02-11T07:18:57.191Z,3.52
2018-02-11T07:21:25.540Z,3.58
2018-02-11T07:23:53.860Z,3.62
2018-02-11T07:26:22.228Z,3.63
2018-02-11T07:28:50.535Z,3.60
2018-02-11T07:31:18.847Z,3.57
2018-02-11T07:33:47.205Z,3.56
2018-02-11T07:36:16.280Z,3.47
2018-02-11T07:38:45.404Z,3.22
2018-02-11T07:41:14.518Z,3.01
2018-02-11T07:43:42.860Z,2.86
2018-02-11T07:46:11.960Z,2.82
2018-02-11T07:48:41.073Z,2.96
2018-02-11T07:51:09.378Z,3.21
2018-02-11T07:53:37.732Z,3.51
2018-02-11T07:56:06.096Z,3.81
2018-02-11T07:58:35.280Z,4.06
2018-02-11T08:01:04.351Z,4.17
2018-02-11T08:03:32.689Z,4.21
2018-02-11T08:06:01.053Z,4.29
2018-02-11T08:08:29.389Z,4.32
2018-02-11T08:10:57.749Z,4.34
2018-02-11T08:13:26.076Z,4.42
2018-02-11T08:15:55.204Z,4.32
2018-02-11T08:18:23.673Z,4.53
2018-02-11T08:20:51.996Z,4.50
2018-02-11T08:23:21.130Z,4.49
2018-02-11T08:25:49.496Z,4.31
2018-02-11T08:28:18.994Z,3.99
2018-02-11T08:30:48.082Z,3.92
2018-02-11T08:33:16.492Z,3.81
2018-02-11T08:35:44.872Z,3.72
2018-02-11T08:38:13.212Z,3.65
2018-02-11T08:40:41.555Z,3.77
2018-02-11T08:43:09.868Z,3.89
2018-02-11T08:45:38.222Z,3.95
2018-02-11T08:48:06.756Z,3.90
2018-02-11T08:50:35.486Z,4.08
2018-02-11T08:53:19.011Z,4.11
2018-02-11T08:55:47.368Z,4.19
2018-02-11T08:58:16.068Z,4.22
2018-02-11T09:00:44.428Z,4.13
2018-02-11T09:03:12.727Z,4.18
2018-02-11T09:05:41.098Z,4.15
2018-02-11T09:08:09.424Z,4.20
2018-02-11T09:10:37.800Z,4.13
2018-02-11T09:13:06.978Z,4.19
2018-02-11T09:15:35.298Z,4.17
2018-02-11T09:18:03.616Z,4.13
2018-02-11T09:20:31.937Z,4.24
2018-02-11T09:23:01.360Z,4.30
2018-02-11T09:25:29.679Z,4.36
2018-02-11T09:27:58.016Z,4.34
2018-02-11T09:30:26.814Z,4.28
2018-02-11T09:32:55.156Z,4.28
2018-02-11T09:35:24.288Z,4.38
2018-02-11T09:37:52.608Z,4.47
2018-02-11T09:40:20.968Z,4.63
2018-02-11T09:42:49.291Z,4.85
2018-02-11T09:45:19.396Z,4.95
2018-02-11T09:47:47.821Z,5.25
2018-02-11T09:50:16.217Z,5.41
2018-02-11T09:52:44.548Z,5.40
2018-02-11T09:55:13.631Z,5.35
2018-02-11T09:57:42.759Z,5.34
2018-02-11T10:00:11.096Z,5.31
2018-02-11T10:02:39.837Z,5.22
2018-02-11T10:05:09.063Z,5.23
2018-02-11T10:07:37.479Z,5.24
2018-02-11T10:10:06.730Z,5.30
2018-02-11T10:12:35.715Z,5.36
2018-02-11T10:15:04.144Z,5.39
2018-02-11T10:17:33.248Z,5.49
2018-02-11T10:20:02.697Z,5.59
2018-02-11T10:22:31.088Z,5.67
2018-02-11T10:24:59.433Z,5.76
2018-02-11T10:27:27.819Z,5.71
2018-02-11T10:29:56.156Z,5.80
2018-02-11T10:32:24.501Z,5.89
2018-02-11T10:34:52.851Z,5.92
2018-02-11T10:37:21.201Z,6.02
2018-02-11T10:39:49.553Z,6.28
2018-02-11T10:42:19.545Z,6.61
2018-02-11T10:44:47.883Z,6.89
2018-02-11T10:47:16.199Z,7.01
2018-02-11T10:49:44.563Z,6.82
2018-02-11T10:52:12.887Z,7.33
2018-02-11T10:54:42.026Z,7.60
2018-02-11T10:57:10.388Z,7.79
2018-02-11T10:59:38.707Z,7.66
2018-02-11T11:02:07.049Z,7.35
2018-02-11T11:04:35.420Z,7.45
2018-02-11T11:07:03.757Z,7.54
2018-02-11T11:09:32.079Z,7.46
2018-02-11T11:12:00.451Z,7.43
2018-02-11T11:14:28.784Z,7.45
2018-02-11T11:16:57.113Z,7.53
2018-02-11T11:19:25.467Z,7.69
2018-02-11T11:21:54.552Z,7.51
2018-02-11T11:24:24.877Z,7.28
2018-02-11T11:26:54.011Z,7.52
2018-02-11T11:29:22.392Z,7.45
2018-02-11T11:31:50.811Z,7.50
2018-02-11T11:34:19.153Z,7.64
2018-02-11T11:36:47.988Z,7.63
2018-02-11T11:39:17.185Z,7.29
2018-02-11T11:41:45.615Z,7.26
2018-02-11T11:44:14.016Z,7.14
2018-02-11T11:46:42.387Z,6.91
2018-02-11T11:49:10.783Z,6.78
2018-02-11T11:51:39.156Z,6.83
2018-02-11T11:54:08.438Z,6.80
2018-02-11T11:56:36.924Z,7.04
2018-02-11T11:59:05.307Z,7.11
2018-02-11T12:01:33.700Z,7.37
2018-02-11T12:04:02.802Z,7.66
2018-02-11T12:06:32.135Z,7.91
2018-02-11T12:09:00.520Z,8.11
2018-02-11T12:11:28.910Z,8.31
2018-02-11T12:13:57.420Z,8.00
2018-02-11T12:16:25.817Z,8.53
2018-02-11T12:18:54.215Z,8.82
2018-02-11T12:21:23.375Z,8.74
2018-02-11T12:23:51.837Z,8.67
2018-02-11T12:26:21.392Z,8.50
2018-02-11T12:28:49.814Z,8.67
2018-02-11T12:31:18.309Z,8.66
2018-02-11T12:33:46.690Z,8.92
2018-02-11T12:36:15.459Z,8.72
2018-02-11T12:38:56.311Z,8.43
2018-02-11T12:41:25.487Z,8.16
2018-02-11T12:43:54.977Z,7.36
2018-02-11T12:46:23.510Z,8.70
2018-02-11T12:48:52.094Z,9.21
2018-02-11T12:51:20.597Z,9.40
2018-02-11T12:53:49.934Z,9.11
2018-02-11T12:56:18.947Z,8.77
2018-02-11T12:58:59.874Z,8.74
2018-02-11T13:01:30.078Z,8.45
2018-02-11T13:03:59.721Z,8.76
2018-02-11T13:06:30.205Z,8.43
2018-02-11T13:08:59.140Z,8.12
2018-02-11T13:11:28.931Z,7.67
2018-02-11T13:14:00.257Z,7.62
2018-02-11T13:16:29.973Z,7.65
2018-02-11T13:18:59.492Z,7.66
2018-02-11T13:21:28.794Z,7.82
2018-02-11T13:23:58.916Z,7.76
2018-02-11T13:26:28.386Z,7.36
2018-02-11T13:28:57.128Z,7.40
2018-02-11T13:31:26.722Z,7.29
2018-02-11T13:33:57.951Z,7.26
2018-02-11T13:36:35.227Z,7.06
2018-02-11T13:39:04.026Z,7.06
2018-02-11T13:41:32.587Z,6.96
2018-02-11T13:44:01.079Z,7.06
2018-02-11T13:46:29.712Z,6.93
2018-02-11T13:48:58.142Z,7.06
2018-02-11T13:51:26.586Z,7.39
2018-02-11T13:53:56.090Z,7.62
2018-02-11T13:56:24.685Z,7.83
2018-02-11T13:58:53.528Z,7.41
2018-02-11T14:01:24.370Z,7.51
2018-02-11T14:03:54.045Z,7.47
2018-02-11T14:06:22.675Z,7.26
2018-02-11T14:08:51.754Z,7.35
2018-02-11T14:11:20.325Z,7.39
2018-02-11T14:13:48.898Z,6.91
2018-02-11T14:16:17.376Z,7.06
2018-02-11T14:18:50.301Z,6.65
2018-02-11T14:21:20.572Z,6.48
2018-02-11T14:26:25.314Z,6.30
2018-02-11T14:28:53.795Z,6.18
2018-02-11T14:31:24.285Z,6.18
2018-02-11T14:33:54.153Z,6.05
2018-02-11T14:36:23.475Z,6.03
2018-02-11T14:38:53.480Z,5.97
2018-02-11T14:41:25.267Z,5.78
2018-02-11T14:43:57.620Z,5.67
2018-02-11T14:46:26.135Z,5.69
2018-02-11T14:48:54.643Z,5.73
2018-02-11T14:51:23.028Z,5.74
2018-02-11T14:53:51.473Z,5.57
2018-02-11T14:56:20.038Z,5.55
2018-02-11T14:58:48.613Z,5.28
2018-02-11T15:01:17.809Z,5.26
2018-02-11T15:03:47.471Z,4.89
2018-02-11T15:06:16.089Z,5.34
2018-02-11T15:08:44.449Z,5.25
2018-02-11T15:11:13.963Z,5.12
2018-02-11T15:13:43.053Z,5.23
2018-02-11T15:16:11.441Z,5.17
2018-02-11T15:18:39.827Z,5.10
2018-02-11T15:21:08.248Z,5.08
2018-02-11T15:23:36.560Z,5.11
2018-02-11T15:26:05.185Z,4.92
2018-02-11T15:28:34.267Z,4.91
2018-02-11T15:31:02.904Z,4.79
2018-02-11T15:33:31.946Z,4.75
2018-02-11T15:36:00.720Z,4.74
2018-02-11T15:38:29.067Z,4.66
2018-02-11T15:40:57.397Z,4.59
2018-02-11T15:43:26.547Z,4.43
2018-02-11T15:45:54.905Z,4.49
2018-02-11T15:48:23.218Z,4.37
2018-02-11T15:50:51.608Z,4.36
2018-02-11T15:53:19.894Z,4.35
2018-02-11T15:55:48.273Z,4.34
2018-02-11T15:58:17.365Z,4.15
2018-02-11T16:00:45.752Z,4.10
2018-02-11T16:03:14.955Z,4.10
2018-02-11T16:05:43.408Z,4.11
2018-02-11T16:08:11.736Z,4.02
2018-02-11T16:10:40.108Z,4.20
2018-02-11T16:13:08.460Z,3.98
2018-02-11T16:15:37.600Z,3.92
2018-02-11T16:18:07.731Z,3.98
2018-02-11T16:20:36.340Z,3.84
2018-02-11T16:23:05.006Z,3.84
2018-02-11T16:25:33.330Z,3.80
2018-02-11T16:28:01.706Z,3.91
2018-02-11T16:30:31.603Z,3.95
2018-02-11T16:33:00.689Z,3.90
2018-02-11T16:35:29.086Z,4.06
2018-02-11T16:37:57.469Z,4.03
2018-02-11T16:40:27.554Z,4.01
2018-02-11T16:42:56.042Z,3.93
2018-02-11T16:45:24.437Z,3.86
2018-02-11T16:47:53.819Z,3.79
2018-02-11T16:50:23.692Z,3.98
2018-02-11T16:52:52.318Z,3.88
2018-02-11T16:55:20.772Z,3.94
2018-02-11T16:57:49.545Z,3.99
2018-02-11T17:00:21.262Z,3.96
2018-02-11T17:02:50.455Z,3.89
2018-02-11T17:05:19.197Z,3.85
2018-02-11T17:07:48.311Z,3.89
2018-02-11T17:10:17.421Z,3.88
2018-02-11T17:12:46.472Z,3.77
2018-02-11T17:15:15.483Z,3.75
2018-02-11T17:17:43.884Z,3.79
2018-02-11T17:20:12.191Z,3.82
2018-02-11T17:22:41.259Z,3.94
2018-02-11T17:25:09.603Z,3.86
2018-02-11T17:27:38.352Z,3.76
2018-02-11T17:30:07.977Z,3.77
2018-02-11T17:32:36.331Z,3.77
2018-02-11T17:35:05.494Z,3.73
2018-02-11T17:37:33.838Z,3.72
2018-02-11T17:40:03.034Z,3.68
2018-02-11T17:42:32.304Z,3.75
2018-02-11T17:45:03.956Z,3.76
2018-02-11T17:47:33.100Z,3.72
2018-02-11T17:50:01.460Z,3.69
2018-02-11T17:52:30.968Z,3.70
2018-02-11T17:54:59.721Z,3.80
2018-02-11T17:57:28.099Z,3.77
2018-02-11T17:59:57.300Z,3.77
2018-02-11T18:02:26.405Z,3.78
2018-02-11T18:04:56.282Z,3.73
2018-02-11T18:07:24.819Z,3.73
2018-02-11T18:09:53.143Z,3.83
2018-02-11T18:12:21.709Z,3.66
2018-02-11T18:14:50.021Z,3.66
2018-02-11T18:17:18.704Z,3.76
2018-02-11T18:19:47.067Z,3.72
2018-02-11T18:22:15.405Z,3.64
2018-02-11T18:24:43.768Z,3.54
2018-02-11T18:27:13.111Z,3.54
2018-02-11T18:29:41.463Z,3.60
2018-02-11T18:32:10.471Z,3.63
2018-02-11T18:34:38.965Z,3.57
2018-02-11T18:37:08.119Z,3.56
2018-02-11T18:39:36.480Z,3.52
2018-02-11T18:42:05.656Z,3.60
2018-02-11T18:44:35.842Z,3.54
2018-02-11T18:47:04.241Z,3.53
2018-02-11T18:49:32.560Z,3.50
2018-02-11T18:52:00.932Z,3.47
2018-02-11T18:54:29.962Z,3.46
2018-02-11T18:56:58.371Z,3.43
2018-02-11T18:59:28.259Z,3.37
2018-02-11T19:01:56.611Z,3.28
2018-02-11T19:04:24.934Z,3.17
2018-02-11T19:06:53.352Z,3.07
2018-02-11T19:09:21.819Z,2.99
2018-02-11T19:11:50.883Z,2.92
2018-02-11T19:14:19.253Z,2.90
2018-02-11T19:16:49.594Z,2.86
2018-02-11T19:19:17.963Z,2.85
2018-02-11T19:21:46.338Z,2.80
2018-02-11T19:24:14.653Z,2.78
2018-02-11T19:26:43.756Z,2.74
2018-02-11T19:29:12.915Z,2.71
2018-02-11T19:31:44.893Z,2.72
2018-02-11T19:34:13.692Z,2.72
2018-02-11T19:36:43.593Z,2.73
2018-02-11T19:39:12.180Z,2.68
2018-02-11T19:41:40.550Z,2.70
2018-02-11T19:44:08.967Z,2.72
2018-02-11T19:46:38.829Z,2.73
2018-02-11T19:49:09.247Z,2.76
2018-02-11T19:51:38.394Z,2.78
2018-02-11T19:54:06.954Z,2.76
2018-02-11T19:56:36.140Z,2.78
2018-02-11T19:59:04.986Z,2.83
2018-02-11T20:01:33.332Z,2.85
2018-02-11T20:04:03.171Z,2.91
2018-02-11T20:06:31.509Z,2.93
2018-02-11T20:09:02.167Z,2.99
2018-02-11T20:11:30.499Z,3.03
2018-02-11T20:13:59.599Z,3.04
2018-02-11T20:16:28.650Z,3.00
2018-02-11T20:18:57.949Z,3.03
2018-02-11T20:21:26.270Z,3.07
2018-02-11T20:23:54.659Z,3.02
2018-02-11T20:26:23.752Z,3.02
2018-02-11T20:28:52.210Z,3.01
2018-02-11T20:31:21.488Z,2.94
2018-02-11T20:33:50.768Z,2.89
2018-02-11T20:36:19.166Z,2.96
2018-02-11T20:38:48.480Z,2.94
2018-02-11T20:41:17.418Z,2.95
2018-02-11T20:43:48.009Z,2.95
2018-02-11T20:46:16.374Z,3.00
2018-02-11T20:48:44.712Z,3.06
2018-02-11T20:51:14.109Z,3.09
2018-02-11T20:53:43.206Z,3.09
2018-02-11T20:56:12.338Z,3.10
2018-02-11T20:58:40.886Z,3.12
2018-02-11T21:01:10.016Z,3.20
2018-02-11T21:03:38.416Z,3.21
2018-02-11T21:06:08.230Z,3.28
2018-02-11T21:08:36.570Z,3.34
2018-02-11T21:11:04.880Z,3.31
2018-02-11T21:13:33.231Z,3.27
2018-02-11T21:16:02.313Z,3.27
2018-02-11T21:18:31.377Z,3.29
2018-02-11T21:21:00.488Z,3.32
2018-02-11T21:23:29.658Z,3.37
2018-02-11T21:25:58.013Z,3.37
2018-02-11T21:28:27.044Z,3.41
2018-02-11T21:30:56.522Z,3.42
2018-02-11T21:33:25.581Z,3.43
2018-02-11T21:35:53.942Z,3.44
2018-02-11T21:38:22.272Z,3.37
2018-02-11T21:40:50.601Z,3.33
2018-02-11T21:43:18.995Z,3.33
2018-02-11T21:45:48.090Z,3.41
2018-02-11T21:48:16.908Z,3.41
2018-02-11T21:50:45.208Z,3.44
2018-02-11T21:53:14.340Z,3.44
2018-02-11T21:55:42.652Z,3.55
2018-02-11T21:58:10.962Z,3.49
2018-02-11T22:00:40.439Z,3.46
2018-02-11T22:03:08.774Z,3.56
2018-02-11T22:05:37.068Z,3.60
2018-02-11T22:08:06.189Z,3.59
2018-02-11T22:10:34.541Z,3.61
2018-02-11T22:13:02.864Z,3.58
2018-02-11T22:15:31.178Z,3.57
2018-02-11T22:17:59.521Z,3.65
2018-02-11T22:20:28.594Z,3.65
2018-02-11T22:22:56.933Z,3.65
2018-02-11T22:25:26.062Z,3.68
2018-02-11T22:27:54.375Z,3.71
2018-02-11T22:30:23.477Z,3.74
2018-02-11T22:32:52.590Z,3.72
2018-02-11T22:35:20.982Z,3.84
2018-02-11T22:37:50.478Z,3.80
2018-02-11T22:40:18.822Z,3.80
2018-02-11T22:42:48.054Z,3.83
2018-02-11T22:45:16.401Z,3.87
2018-02-11T22:47:45.525Z,3.65
2018-02-11T22:50:14.965Z,3.88
2018-02-11T22:52:43.311Z,3.90
2018-02-11T22:55:11.626Z,3.90
2018-02-11T22:57:39.961Z,3.86
2018-02-11T23:00:08.288Z,3.86
2018-02-11T23:02:37.365Z,3.83
2018-02-11T23:05:06.093Z,3.84
2018-02-11T23:07:34.427Z,3.85
2018-02-11T23:10:03.546Z,3.85
2018-02-11T23:12:32.277Z,3.85
2018-02-11T23:15:00.617Z,3.78
2018-02-11T23:17:29.753Z,3.72
2018-02-11T23:19:58.051Z,3.73
2018-02-11T23:22:27.987Z,3.72
2018-02-11T23:24:56.307Z,3.65
2018-02-11T23:27:24.633Z,3.65
2018-02-11T23:29:52.978Z,3.67
2018-02-11T23:32:21.289Z,3.69
2018-02-11T23:34:49.597Z,3.73
2018-02-11T23:37:18.798Z,3.71
2018-02-11T23:39:47.897Z,3.68
2018-02-11T23:42:16.233Z,3.68
2018-02-11T23:44:44.573Z,3.65
2018-02-11T23:47:12.913Z,3.69
2018-02-11T23:49:42.029Z,3.73
2018-02-11T23:52:10.421Z,3.78
2018-02-11T23:54:38.764Z,3.71
2018-02-11T23:57:07.837Z,3.77
2018-02-11T23:59:36.165Z,3.85
